createdAt,value
2019-03-18T00:02:08.225Z,3.00
2019-03-18T00:05:13.323Z,2.17
2019-03-18T00:08:18.343Z,2.57
2019-03-18T00:11:23.380Z,2.40
2019-03-18T00:14:28.315Z,3.50
2019-03-18T00:17:33.278Z,2.83
2019-03-18T00:20:38.211Z,3.10
2019-03-18T00:23:43.166Z,2.60
2019-03-18T00:26:48.126Z,2.70
2019-03-18T00:29:53.176Z,2.80
2019-03-18T00:32:58.264Z,3.00
2019-03-18T00:36:03.295Z,2.60
2019-03-18T00:39:09.038Z,2.50
2019-03-18T00:42:14.099Z,2.87
2019-03-18T00:45:19.207Z,2.93
2019-03-18T00:48:24.162Z,2.53
2019-03-18T00:51:29.117Z,2.80
2019-03-18T00:54:34.231Z,2.47
2019-03-18T00:57:39.340Z,3.33
2019-03-18T01:00:44.367Z,2.60
2019-03-18T01:03:49.363Z,3.57
2019-03-18T01:06:54.411Z,3.37
2019-03-18T01:09:59.438Z,3.27
2019-03-18T01:13:04.547Z,3.50
2019-03-18T01:16:09.668Z,3.80
2019-03-18T01:19:14.744Z,3.67
2019-03-18T01:22:19.832Z,3.90
2019-03-18T01:25:24.827Z,4.33
2019-03-18T01:28:29.852Z,4.00
2019-03-18T01:31:34.827Z,4.40
2019-03-18T01:34:39.763Z,4.97
2019-03-18T01:37:44.896Z,4.20
2019-03-18T01:40:50.024Z,4.47
2019-03-18T01:43:55.007Z,3.87
2019-03-18T01:47:00.187Z,4.73
2019-03-18T01:50:05.687Z,4.17
2019-03-18T01:53:10.795Z,4.27
2019-03-18T01:56:15.859Z,4.77
2019-03-18T01:59:20.951Z,4.40
2019-03-18T02:02:25.933Z,4.40
2019-03-18T02:05:30.966Z,5.17
2019-03-18T02:08:35.979Z,4.23
2019-03-18T02:11:41.250Z,3.70
2019-03-18T02:14:46.370Z,3.63
2019-03-18T02:17:51.496Z,4.00
2019-03-18T02:20:56.470Z,4.00
2019-03-18T02:24:01.511Z,3.87
2019-03-18T02:27:06.652Z,4.40
2019-03-18T02:30:11.914Z,3.80
2019-03-18T02:33:17.030Z,3.63
2019-03-18T02:36:21.989Z,3.27
2019-03-18T02:39:27.028Z,3.27
2019-03-18T02:42:31.974Z,3.57
2019-03-18T02:45:37.095Z,4.00
2019-03-18T02:48:42.193Z,3.67
2019-03-18T02:51:47.174Z,4.00
2019-03-18T02:54:52.144Z,4.07
2019-03-18T02:57:57.519Z,3.80
2019-03-18T03:01:02.540Z,3.93
2019-03-18T03:04:07.679Z,3.23
2019-03-18T03:07:12.904Z,3.33
2019-03-18T03:10:18.100Z,2.90
2019-03-18T03:13:23.130Z,4.80
2019-03-18T03:16:28.116Z,3.47
2019-03-18T03:19:33.131Z,3.40
2019-03-18T03:22:38.200Z,3.50
2019-03-18T03:25:43.313Z,3.90
2019-03-18T03:28:48.449Z,3.53
2019-03-18T03:31:53.414Z,4.57
2019-03-18T03:34:58.613Z,4.10
2019-03-18T03:38:03.652Z,4.40
2019-03-18T03:41:08.772Z,4.37
2019-03-18T03:44:13.901Z,4.83
2019-03-18T03:47:19.089Z,4.67
2019-03-18T03:50:24.192Z,4.23
2019-03-18T03:53:30.878Z,4.60
2019-03-18T03:56:36.032Z,4.33
2019-03-18T03:59:41.164Z,4.20
2019-03-18T04:02:46.210Z,4.50
2019-03-18T04:05:51.392Z,3.73
2019-03-18T04:08:56.434Z,3.70
2019-03-18T04:12:01.621Z,4.50
2019-03-18T04:15:06.836Z,4.10
2019-03-18T04:18:12.032Z,3.70
2019-03-18T04:21:17.399Z,4.20
2019-03-18T04:24:22.538Z,4.70
2019-03-18T04:27:27.566Z,3.57
2019-03-18T04:30:32.614Z,4.00
2019-03-18T04:33:39.238Z,4.40
2019-03-18T04:36:44.544Z,3.77
2019-03-18T04:39:49.508Z,3.83
2019-03-18T04:42:54.558Z,4.50
2019-03-18T04:45:59.664Z,4.60
2019-03-18T04:49:04.730Z,5.03
2019-03-18T04:52:09.825Z,4.60
2019-03-18T04:55:15.199Z,4.40
2019-03-18T04:58:20.331Z,5.27
2019-03-18T05:01:25.368Z,5.63
2019-03-18T05:04:30.415Z,5.97
2019-03-18T05:07:35.459Z,6.83
2019-03-18T05:10:40.423Z,5.83
2019-03-18T05:13:45.501Z,6.30
2019-03-18T05:16:50.758Z,6.30
2019-03-18T05:19:55.727Z,5.40
2019-03-18T05:23:00.762Z,5.10
2019-03-18T05:26:05.911Z,5.20
2019-03-18T05:29:10.885Z,5.10
2019-03-18T05:32:15.920Z,4.40
2019-03-18T05:35:21.288Z,4.93
2019-03-18T05:38:26.638Z,4.50
2019-03-18T05:41:31.778Z,5.03
2019-03-18T05:44:37.240Z,4.60
2019-03-18T05:47:42.394Z,4.80
2019-03-18T05:50:47.443Z,4.93
2019-03-18T05:53:52.564Z,4.87
2019-03-18T05:56:57.604Z,4.90
2019-03-18T06:00:02.639Z,4.73
2019-03-18T06:03:07.778Z,4.77
2019-03-18T06:06:12.737Z,4.63
2019-03-18T06:09:17.700Z,4.27
2019-03-18T06:12:22.739Z,5.20
2019-03-18T06:15:27.850Z,4.17
2019-03-18T06:18:32.885Z,3.57
2019-03-18T06:21:37.976Z,3.60
2019-03-18T06:24:42.973Z,3.83
2019-03-18T06:27:47.948Z,3.63
2019-03-18T06:30:53.001Z,3.80
2019-03-18T06:33:57.979Z,4.07
2019-03-18T06:37:02.933Z,3.47
2019-03-18T06:40:08.527Z,3.43
2019-03-18T06:43:13.645Z,2.90
2019-03-18T06:46:18.684Z,2.47
2019-03-18T06:49:23.711Z,3.10
2019-03-18T06:52:28.759Z,2.37
2019-03-18T06:55:33.872Z,2.73
2019-03-18T06:58:38.930Z,3.07
2019-03-18T07:01:43.987Z,3.27
2019-03-18T07:04:48.959Z,3.40
2019-03-18T07:07:53.957Z,3.20
2019-03-18T07:10:58.992Z,3.67
2019-03-18T07:14:04.366Z,3.07
2019-03-18T07:17:09.397Z,3.50
2019-03-18T07:20:14.528Z,3.70
2019-03-18T07:23:19.744Z,4.00
2019-03-18T07:26:24.732Z,4.83
2019-03-18T07:29:29.774Z,4.57
2019-03-18T07:32:34.884Z,5.80
2019-03-18T07:35:39.836Z,4.43
2019-03-18T07:38:47.903Z,4.30
2019-03-18T07:41:53.255Z,3.80
2019-03-18T07:44:58.403Z,4.40
2019-03-18T07:48:03.475Z,4.80
2019-03-18T07:51:08.608Z,4.47
2019-03-18T07:54:13.629Z,5.47
2019-03-18T07:57:18.635Z,3.90
2019-03-18T08:00:23.792Z,3.77
2019-03-18T08:03:28.775Z,3.57
2019-03-18T08:06:33.884Z,4.37
2019-03-18T08:09:38.940Z,3.90
2019-03-18T08:12:43.973Z,3.80
2019-03-18T08:15:48.972Z,4.27
2019-03-18T08:18:54.006Z,3.47
2019-03-18T08:21:59.038Z,3.57
2019-03-18T08:25:04.289Z,5.23
2019-03-18T08:28:09.450Z,5.07
2019-03-18T08:31:14.411Z,6.03
2019-03-18T08:34:19.408Z,5.37
2019-03-18T08:37:24.430Z,5.90
2019-03-18T08:40:29.409Z,5.77
2019-03-18T08:43:34.507Z,6.27
2019-03-18T08:46:39.589Z,4.80
2019-03-18T08:49:44.532Z,6.97
2019-03-18T08:52:49.587Z,5.60
2019-03-18T08:55:54.727Z,5.30
2019-03-18T08:59:00.199Z,6.10
2019-03-18T09:02:05.295Z,5.77
2019-03-18T09:05:12.678Z,5.27
2019-03-18T09:08:17.712Z,6.50
2019-03-18T09:11:22.756Z,5.20
2019-03-18T09:14:27.716Z,5.93
2019-03-18T09:17:33.272Z,5.50
2019-03-18T09:20:38.397Z,5.73
2019-03-18T09:23:43.348Z,5.30
2019-03-18T09:26:48.470Z,5.37
2019-03-18T09:29:53.580Z,5.07
2019-03-18T09:32:58.639Z,4.53
2019-03-18T09:36:03.683Z,4.43
2019-03-18T09:39:09.092Z,4.37
2019-03-18T09:42:14.065Z,4.10
2019-03-18T09:45:19.240Z,4.90
2019-03-18T09:48:24.288Z,4.07
2019-03-18T09:51:29.334Z,4.33
2019-03-18T09:54:34.353Z,4.10
2019-03-18T09:57:39.482Z,4.37
2019-03-18T10:00:44.644Z,4.50
2019-03-18T10:03:49.768Z,3.97
2019-03-18T10:06:54.729Z,3.30
2019-03-18T10:09:59.770Z,3.73
2019-03-18T10:13:05.850Z,3.30
2019-03-18T10:16:10.965Z,3.90
2019-03-18T10:19:16.856Z,3.10
2019-03-18T10:22:21.809Z,3.40
2019-03-18T10:25:26.874Z,3.63
2019-03-18T10:28:32.091Z,2.60
2019-03-18T10:31:37.125Z,2.90
2019-03-18T10:34:42.172Z,3.70
2019-03-18T10:37:47.165Z,3.17
2019-03-18T10:40:52.209Z,2.90
2019-03-18T10:43:57.231Z,3.50
2019-03-18T10:47:02.275Z,2.97
2019-03-18T10:50:08.319Z,2.60
2019-03-18T10:53:13.387Z,3.30
2019-03-18T10:56:18.555Z,2.50
2019-03-18T10:59:24.716Z,3.27
2019-03-18T11:02:29.764Z,5.27
2019-03-18T11:05:34.818Z,2.90
2019-03-18T11:08:39.838Z,3.20
2019-03-18T11:11:44.888Z,3.03
2019-03-18T11:14:50.001Z,3.10
2019-03-18T11:17:57.403Z,2.40
2019-03-18T11:21:02.518Z,2.90
2019-03-18T11:24:07.630Z,3.10
2019-03-18T11:27:12.736Z,2.80
2019-03-18T11:30:17.948Z,3.03
2019-03-18T11:33:23.004Z,2.60
2019-03-18T11:36:28.033Z,4.43
2019-03-18T11:39:33.087Z,2.93
2019-03-18T11:42:38.043Z,2.60
2019-03-18T11:45:43.244Z,2.00
2019-03-18T11:48:48.352Z,2.70
2019-03-18T11:51:53.405Z,3.07
2019-03-18T11:54:58.361Z,2.30
2019-03-18T11:58:03.481Z,3.30
2019-03-18T12:01:08.580Z,2.50
2019-03-18T12:04:13.699Z,2.77
2019-03-18T12:07:18.655Z,3.03
2019-03-18T12:10:25.934Z,3.17
2019-03-18T12:13:30.877Z,3.37
2019-03-18T12:16:35.992Z,3.67
2019-03-18T12:19:43.084Z,4.90
2019-03-18T12:22:48.200Z,4.50
2019-03-18T12:25:53.298Z,3.70
2019-03-18T12:29:00.696Z,3.53
2019-03-18T12:32:05.818Z,4.00
2019-03-18T12:35:11.157Z,3.97
2019-03-18T12:38:16.361Z,3.73
2019-03-18T12:41:21.489Z,4.00
2019-03-18T12:44:26.523Z,3.00
2019-03-18T12:47:31.556Z,3.27
2019-03-18T12:50:53.991Z,3.80
2019-03-18T12:53:43.493Z,3.93
2019-03-18T12:56:48.534Z,3.70
2019-03-18T12:59:53.648Z,3.80
2019-03-18T13:02:58.771Z,3.23
2019-03-18T13:06:03.945Z,3.50
2019-03-18T13:09:09.945Z,3.33
2019-03-18T13:12:14.923Z,3.20
2019-03-18T13:15:20.417Z,3.73
2019-03-18T13:18:25.527Z,3.50
2019-03-18T13:21:30.951Z,2.93
2019-03-18T13:24:36.096Z,3.60
2019-03-18T13:27:41.245Z,3.00
2019-03-18T13:30:46.347Z,3.33
2019-03-18T13:33:51.408Z,3.60
2019-03-18T13:36:56.533Z,2.73
2019-03-18T13:40:01.592Z,3.50
2019-03-18T13:43:06.808Z,3.10
2019-03-18T13:46:11.858Z,3.77
2019-03-18T13:49:16.804Z,3.10
2019-03-18T13:52:21.878Z,3.10
2019-03-18T13:55:27.880Z,3.43
2019-03-18T13:58:32.928Z,2.70
2019-03-18T14:01:37.975Z,2.70
2019-03-18T14:04:43.079Z,2.13
2019-03-18T14:07:59.818Z,2.47
2019-03-18T14:10:55.015Z,2.93
2019-03-18T14:14:00.147Z,2.47
2019-03-18T14:17:05.244Z,3.00
2019-03-18T14:20:11.716Z,3.50
2019-03-18T14:23:16.686Z,2.67
2019-03-18T14:26:21.667Z,2.43
2019-03-18T14:29:26.771Z,2.07
2019-03-18T14:32:31.808Z,1.80
2019-03-18T14:35:36.791Z,2.63
2019-03-18T14:38:41.826Z,2.30
2019-03-18T14:41:46.891Z,2.00
2019-03-18T14:44:51.925Z,2.10
2019-03-18T14:47:57.054Z,2.20
2019-03-18T14:51:02.065Z,2.33
2019-03-18T14:54:07.200Z,2.40
2019-03-18T14:57:12.331Z,2.37
2019-03-18T15:00:19.352Z,2.00
2019-03-18T15:03:24.549Z,2.60
2019-03-18T15:06:29.590Z,2.33
2019-03-18T15:09:34.747Z,2.47
2019-03-18T15:12:39.813Z,3.00
2019-03-18T15:15:44.840Z,2.83
2019-03-18T15:18:49.911Z,3.17
2019-03-18T15:21:58.720Z,2.83
2019-03-18T15:25:01.632Z,3.17
2019-03-18T15:28:06.756Z,2.70
2019-03-18T15:31:11.859Z,3.33
2019-03-18T15:34:16.832Z,2.97
2019-03-18T15:37:21.930Z,4.07
2019-03-18T15:40:27.091Z,4.17
2019-03-18T15:43:32.235Z,2.37
2019-03-18T15:46:37.421Z,2.33
2019-03-18T15:49:42.468Z,2.23
2019-03-18T15:52:47.583Z,2.60
2019-03-18T15:55:52.636Z,2.30
2019-03-18T15:58:57.688Z,2.10
2019-03-18T16:02:02.784Z,2.40
2019-03-18T16:05:08.032Z,2.80
2019-03-18T16:08:13.010Z,2.77
2019-03-18T16:11:18.060Z,2.17
2019-03-18T16:14:23.107Z,2.00
2019-03-18T16:17:28.328Z,3.20
2019-03-18T16:20:33.321Z,1.57
2019-03-18T16:23:38.308Z,1.57
2019-03-18T16:26:43.429Z,1.60
2019-03-18T16:29:48.392Z,1.23
2019-03-18T16:32:53.519Z,1.30
2019-03-18T16:35:58.629Z,1.40
2019-03-18T16:39:04.879Z,1.33
2019-03-18T16:42:09.980Z,1.60
2019-03-18T16:45:15.344Z,1.37
2019-03-18T16:48:20.376Z,1.30
2019-03-18T16:51:25.504Z,1.60
2019-03-18T16:54:30.533Z,1.33
2019-03-18T16:57:35.687Z,1.80
2019-03-18T17:00:40.658Z,2.17
2019-03-18T17:03:45.796Z,2.00
2019-03-18T17:06:50.900Z,2.00
2019-03-18T17:09:55.935Z,2.63
2019-03-18T17:13:00.903Z,3.00
2019-03-18T17:16:06.013Z,2.50
2019-03-18T17:19:10.987Z,6.40
2019-03-18T17:22:15.959Z,2.00
2019-03-18T17:25:21.138Z,2.70
2019-03-18T17:28:26.223Z,2.30
2019-03-18T17:31:31.188Z,2.00
2019-03-18T17:34:36.260Z,1.90
2019-03-18T17:37:41.332Z,3.10
2019-03-18T17:40:46.469Z,4.90
2019-03-18T17:43:51.459Z,6.27
2019-03-18T17:46:56.516Z,5.53
2019-03-18T17:50:01.555Z,4.63
2019-03-18T17:53:06.775Z,3.40
2019-03-18T17:56:11.826Z,2.37
2019-03-18T17:59:16.877Z,2.73
2019-03-18T18:02:21.921Z,2.70
2019-03-18T18:05:26.976Z,4.17
2019-03-18T18:08:32.064Z,4.43
2019-03-18T18:11:38.830Z,4.00
2019-03-18T18:14:43.845Z,3.57
2019-03-18T18:17:49.069Z,5.63
2019-03-18T18:20:54.205Z,5.83
2019-03-18T18:23:59.377Z,3.83
2019-03-18T18:27:04.504Z,4.20
2019-03-18T18:30:09.689Z,4.60
2019-03-18T18:33:14.702Z,6.50
2019-03-18T18:36:19.735Z,6.43
2019-03-18T18:39:24.795Z,4.57
2019-03-18T18:42:29.816Z,4.10
2019-03-18T18:45:34.867Z,3.80
2019-03-18T18:48:39.812Z,4.20
2019-03-18T18:51:44.876Z,4.10
2019-03-18T18:54:49.900Z,2.63
2019-03-18T18:57:55.018Z,4.63
2019-03-18T19:01:00.063Z,4.77
2019-03-18T19:04:05.365Z,4.67
2019-03-18T19:07:10.404Z,4.50
2019-03-18T19:10:15.534Z,4.27
2019-03-18T19:13:20.625Z,3.50
2019-03-18T19:16:25.672Z,3.67
2019-03-18T19:19:32.253Z,3.90
2019-03-18T19:22:37.519Z,4.27
2019-03-18T19:25:42.558Z,3.87
2019-03-18T19:28:47.583Z,3.93
2019-03-18T19:31:52.631Z,3.60
2019-03-18T19:34:57.773Z,3.13
2019-03-18T19:38:03.032Z,4.07
2019-03-18T19:41:08.068Z,4.87
2019-03-18T19:44:13.214Z,6.03
2019-03-18T19:47:18.193Z,5.87
2019-03-18T19:50:23.260Z,6.50
2019-03-18T19:53:28.291Z,4.63
2019-03-18T19:56:33.348Z,4.90
2019-03-18T19:59:38.622Z,5.63
2019-03-18T20:02:43.908Z,4.50
2019-03-18T20:05:49.084Z,5.67
2019-03-18T20:08:54.379Z,5.30
2019-03-18T20:11:59.454Z,4.50
2019-03-18T20:15:05.592Z,5.50
2019-03-18T20:18:10.800Z,5.60
2019-03-18T20:21:15.935Z,5.33
2019-03-18T20:24:21.100Z,8.70
2019-03-18T20:27:26.332Z,5.83
2019-03-18T20:30:31.507Z,6.77
2019-03-18T20:33:36.607Z,6.33
2019-03-18T20:36:41.677Z,6.17
2019-03-18T20:39:48.982Z,5.10
2019-03-18T20:42:54.226Z,5.93
2019-03-18T20:45:59.371Z,6.50
2019-03-18T20:49:04.664Z,7.20
2019-03-18T20:52:16.757Z,6.33
2019-03-18T20:55:17.035Z,6.80
2019-03-18T20:58:22.259Z,6.17
2019-03-18T21:01:27.471Z,6.50
2019-03-18T21:04:32.680Z,6.90
2019-03-18T21:07:37.905Z,6.43
2019-03-18T21:10:43.079Z,6.13
2019-03-18T21:13:56.695Z,7.20
2019-03-18T21:16:55.243Z,7.50
2019-03-18T21:20:00.374Z,6.93
2019-03-18T21:23:05.598Z,7.10
2019-03-18T21:26:10.703Z,6.80
2019-03-18T21:29:16.114Z,8.67
2019-03-18T21:32:32.137Z,6.70
2019-03-18T21:35:37.785Z,7.20
2019-03-18T21:38:42.906Z,6.40
2019-03-18T21:41:48.159Z,5.33
2019-03-18T21:45:05.032Z,5.80
2019-03-18T21:48:11.967Z,5.30
2019-03-18T21:51:22.024Z,5.37
2019-03-18T21:54:34.228Z,5.80
2019-03-18T21:57:35.394Z,5.27
2019-03-18T22:00:40.668Z,5.70
2019-03-18T22:03:45.999Z,5.40
2019-03-18T22:06:51.243Z,6.40
2019-03-18T22:09:56.674Z,5.60
2019-03-18T22:13:03.078Z,4.80
2019-03-18T22:16:08.261Z,6.00
2019-03-18T22:19:15.960Z,5.53
2019-03-18T22:22:20.333Z,4.87
2019-03-18T22:25:25.364Z,5.37
2019-03-18T22:28:30.492Z,5.10
2019-03-18T22:31:35.752Z,5.17
2019-03-18T22:34:40.872Z,5.17
2019-03-18T22:37:46.001Z,5.40
2019-03-18T22:40:51.107Z,5.80
2019-03-18T22:43:56.069Z,6.63
2019-03-18T22:47:01.363Z,6.20
2019-03-18T22:50:08.574Z,6.40
2019-03-18T22:53:13.648Z,4.90
2019-03-18T22:56:18.744Z,6.33
2019-03-18T22:59:23.857Z,5.60
2019-03-18T23:02:29.027Z,5.30
2019-03-18T23:05:34.148Z,6.87
2019-03-18T23:08:39.268Z,6.00
2019-03-18T23:11:44.869Z,6.00
2019-03-18T23:14:51.973Z,6.93
2019-03-18T23:17:57.016Z,5.43
2019-03-18T23:21:02.048Z,6.13
2019-03-18T23:24:07.201Z,6.40
2019-03-18T23:27:12.217Z,6.77
2019-03-18T23:30:17.339Z,7.03
2019-03-18T23:33:22.381Z,6.40
2019-03-18T23:36:27.340Z,6.80
2019-03-18T23:39:32.388Z,5.60
2019-03-18T23:42:37.430Z,6.70
2019-03-18T23:45:42.549Z,5.90
2019-03-18T23:48:47.529Z,6.27
2019-03-18T23:51:52.556Z,6.50
2019-03-18T23:54:57.681Z,6.63
2019-03-18T23:58:02.784Z,6.07
